CST,Max TemperatureF,Mean TemperatureF,Min TemperatureF,Max Dew PointF,MeanDew PointF,Min DewpointF,Max Humidity, Mean Humidity, Min Humidity, Max Sea Level PressureIn, Mean Sea Level PressureIn, Min Sea Level PressureIn, Max VisibilityMiles, Mean VisibilityMiles, Min VisibilityMiles, Max Wind SpeedMPH, Mean Wind SpeedMPH, Max Gust SpeedMPH,PrecipitationIn, CloudCover, Events, WindDirDegrees
2014-1-1,7,-4,-14,-7,-11,-20,78,67,53,30.51,30.46,30.42,10,10,10,10,3,,0.00,5,,339
2014-1-2,6,-4,-18,-6,-13,-24,83,72,55,30.45,30.42,30.39,10,10,10,14,5,,0.00,1,,328
2014-1-3,16,-4,-22,8,-7,-29,79,69,58,30.41,30.02,29.61,10,8,1,20,7,29,0.00,6,Snow,171
2014-1-4,24,15,5,18,10,-1,86,76,62,30.09,29.69,29.48,10,6,1,18,10,30,0.04,7,Snow,209
2014-1-5,7,-1,-9,0,-10,-18,85,69,57,30.22,30.14,29.94,10,10,9,14,7,22,0.00,1,,312
2014-1-6,-9,-14,-18,-17,-24,-29,71,60,50,30.03,29.98,29.85,10,9,2,18,12,24,0.00,4,Snow,290
2014-1-7,-2,-11,-20,-15,-21,-28,71,64,51,30.21,30.06,29.87,10,10,10,10,7,17,0.00,3,,276
2014-1-8,8,-4,-18,-4,-13,-22,86,69,53,30.52,30.34,30.14,10,10,10,10,6,,0.00,3,,283
2014-1-9,15,-6,-26,7,-10,-32,81,64,43,30.52,30.32,30.06,10,10,10,15,4,,0.00,3,,171
2014-1-10,30,23,16,28,22,10,100,90,77,30.07,29.72,29.40,9,2,1,9,5,,0.09,8,Snow,148
2014-1-11,30,28,27,27,25,22,96,85,75,29.59,29.40,29.31,10,7,1,15,7,22,0.00,8,Snow,304
2014-1-12,33,28,23,27,23,21,92,81,72,29.65,29.54,29.43,10,8,2,15,7,21,0.00,5,Snow,169
2014-1-13,33,28,24,27,22,15,92,76,61,29.64,29.51,29.42,10,9,4,14,4,22,0.00,7,,285
2014-1-14,25,20,12,19,14,4,86,78,65,29.90,29.71,29.63,10,4,0,22,9,31,0.00,8,Fog-Snow,4
2014-1-15,15,12,8,7,4,2,84,72,67,29.99,29.77,29.49,10,7,1,17,12,25,0.01,7,Snow,210
2014-1-16,25,16,8,21,14,3,92,84,73,29.62,29.43,29.33,10,4,0,15,8,21,0.02,8,Fog-Snow,167
2014-1-17,19,14,10,16,11,4,86,78,68,29.92,29.75,29.59,10,7,1,17,11,23,0.00,8,Snow,328
2014-1-18,18,10,1,8,3,-2,92,77,57,29.90,29.82,29.61,10,8,2,9,1,16,0.00,5,Snow,282
2014-1-19,28,17,6,21,13,0,81,77,70,29.69,29.50,29.40,10,8,2,15,9,20,0.00,8,Snow,318
2014-1-20,8,0,-11,1,-6,-15,83,68,55,30.28,30.03,29.70,10,10,7,15,9,22,0.00,4,Snow,334
2014-1-21,8,0,-9,-7,-10,-15,83,70,46,30.33,30.24,30.10,10,10,6,14,5,,0.00,6,,329
2014-1-22,5,2,-2,-2,-5,-8,79,73,56,30.13,29.89,29.77,10,3,1,23,7,26,0.00,8,Snow,285
2014-1-23,6,-1,-8,1,-7,-15,85,69,52,30.52,30.35,30.08,10,8,2,16,10,24,0.00,4,Snow,322
2014-1-24,21,7,-7,18,5,-15,86,75,62,30.18,29.52,29.19,10,6,1,15,9,23,0.00,7,Snow,230
2014-1-25,21,10,-2,16,-6,-13,80,65,55,29.73,29.51,29.22,10,5,0,25,17,34,0.00,7,Snow,314
2014-1-26,6,1,-5,0,-6,-13,79,73,62,29.73,29.41,29.21,10,4,0,26,3,37,0.00,7,Snow,298
2014-1-27,-5,-8,-11,-11,-18,-21,77,61,49,30.22,29.99,29.65,10,7,1,26,13,33,0.00,3,Snow,297
2014-1-28,1,-8,-17,-13,-19,-24,70,57,45,30.22,30.09,29.90,10,10,10,17,10,29,0.00,1,,267
2014-1-29,19,8,-2,4,-6,-13,63,52,35,29.94,29.86,29.68,10,10,10,14,10,21,0.00,2,,236
2014-1-30,21,13,3,19,11,-2,93,79,62,29.86,29.60,29.44,10,5,0,17,9,23,0.11,5,Fog-Snow,228
2014-1-31,9,1,-7,-2,-8,-13,87,69,55,30.10,30.03,29.79,10,10,10,12,6,,0.00,1,,274